Boca Raton, FL (33428)

5:56 AM EDT on September 15, 2014 (GMT -0400)
West Boca Raton | Change Station
CLOSE
Current Station
Personal Weather Station
Location: Boca Raton, FL
Elevation: 33 ft
Nearby Weather Stations

Elev 33 ft 26.34 °N, 80.21 °W | Updated 4 minutes ago

Partly Cloudy
Partly Cloudy
73.4 °F
Feels Like 73.4 °F
N
0.0
Wind Variable Wind from SW

Today
High -- | Low -- °F
--% Chance of Precip.
Yesterday
High -- | Low -- °F
Precip. -- in
7:06 AM 7:25 PM
Waning Gibbous, 57% visible
Pressure 30.11 in
Visibility 10.0 miles
Clouds Few 1900 ft
Dew Point 73 °F
Humidity 98%
Rainfall 0.00 in
Snow Depth Not available.
UV 8.5 out of 12
Pollen 4.90 out of 12
Air Quality Not available.
Flu Activity Not available.
METAR KPMP 150853Z AUTO 09005KT 10SM FEW019 28/23 A3010 RMK AO2 SLP195 T02780233 56007

More Conditions Fewer Conditions

Pressure 30.11 in
Visibility 10.0 miles
Clouds Few 1900 ft
Dew Point 73 °F
Humidity 98%
Rainfall 0.00 in
Snow Depth Not available.
UV 8.5 out of 12
Pollen 4.90 out of 12
Air Quality Not available.
Flu Activity Not available.
METAR KPMP 150853Z AUTO 09005KT 10SM FEW019 28/23 A3010 RMK AO2 SLP195 T02780233 56007

More Conditions Fewer Conditions

10-Day Weather Forecast

Almanac

Astronomy

Sep. 15, 2014 Rise Set
Actual Time 7:06 AM EDT 7:25 PM EDT
Civil Twilight 6:43 AM EDT 7:48 PM EDT
Nautical Twilight 6:16 AM EDT 8:15 PM EDT
Astronomical Twilight 5:48 AM EDT 8:42 PM EDT
Moon No Moon Rise 1:32 PM EDT
Length of Visible Light 13h 04m
Length of Day
12h 18m
Tomorrow will be 1m 32s shorter.
Waning Gibbous, 57% of the Moon is Illuminated
Today
Waning Gibbous
Sep 15
Last Quarter
Sep 24
New
Oct 1
First Quarter
Oct 8
Full

Today's Extremes

State Highs State Lows

Community

WunderPhotos

Upload Photos

1,753,427 photos uploaded!

Nearby

Air Quality

  Air Quality AQ Index Pollutant
Yesterday Good
OZONE
Yesterday Good
PM2.5
Monday Good
OZONE
Monday Good
PM2.5

Snow Depth

Station Depth Elevation
No new snow has been reported.

Earthquake Activity

City Distance Mag. Time & Date
No recent earthquake activity has been reported nearby.
Minimum magnitude displayed is 2.5.

Coastal Water Temperatures

Place Temperature
Lake Worth, FL 84.0 °F
Virginia Key, FL 84.0 °F

Nearby Weather Stations